createdAt,value
2022-09-07T00:01:09.131Z,19.10
2022-09-07T00:03:37.463Z,19.20
2022-09-07T00:06:08.375Z,19.20
2022-09-07T00:08:36.931Z,19.30
2022-09-07T00:11:08.329Z,19.20
2022-09-07T00:13:39.887Z,19.30
2022-09-07T00:16:09.591Z,19.40
2022-09-07T00:18:40.345Z,19.40
2022-09-07T00:21:13.043Z,19.50
2022-09-07T00:23:41.548Z,19.50
2022-09-07T00:26:13.778Z,19.60
2022-09-07T00:28:44.266Z,19.60
2022-09-07T00:31:14.394Z,19.70
2022-09-07T00:33:42.832Z,19.70
2022-09-07T00:36:11.011Z,19.80
2022-09-07T00:38:39.528Z,19.80
2022-09-07T00:41:07.978Z,19.90
2022-09-07T00:43:38.590Z,19.80
2022-09-07T00:46:13.235Z,19.90
2022-09-07T00:48:46.957Z,19.90
2022-09-07T00:51:20.120Z,19.90
2022-09-07T00:53:53.719Z,19.90
2022-09-07T00:56:25.611Z,19.80
2022-09-07T00:58:54.247Z,19.70
2022-09-07T01:01:24.172Z,19.70
2022-09-07T01:03:54.675Z,19.70
2022-09-07T01:06:25.869Z,19.70
2022-09-07T01:08:56.140Z,19.70
2022-09-07T01:11:24.621Z,19.80
2022-09-07T01:13:54.524Z,19.80
2022-09-07T01:16:37.320Z,19.90
2022-09-07T01:19:22.601Z,19.80
2022-09-07T01:22:04.980Z,19.80
2022-09-07T01:24:58.237Z,19.70
2022-09-07T01:27:59.049Z,19.60
2022-09-07T01:30:30.435Z,19.50
2022-09-07T01:33:38.227Z,19.60
2022-09-07T01:36:17.471Z,19.60
2022-09-07T01:38:48.165Z,19.60
2022-09-07T01:41:21.574Z,19.50
2022-09-07T01:43:54.171Z,19.50
2022-09-07T01:46:27.901Z,19.40
2022-09-07T01:49:00.771Z,19.50
2022-09-07T01:51:33.055Z,19.60
2022-09-07T01:54:07.388Z,19.70
2022-09-07T01:56:40.008Z,19.70
2022-09-07T01:59:15.090Z,19.80
2022-09-07T02:01:51.196Z,19.80
2022-09-07T02:04:23.431Z,19.80
2022-09-07T02:07:00.002Z,19.80
2022-09-07T02:09:34.425Z,19.80
2022-09-07T02:12:06.895Z,19.80
2022-09-07T02:14:39.363Z,19.80
2022-09-07T02:17:14.548Z,19.80
2022-09-07T02:19:47.831Z,19.80
2022-09-07T02:22:19.832Z,19.80
2022-09-07T02:24:52.152Z,19.90
2022-09-07T02:27:25.382Z,19.90
2022-09-07T02:29:54.177Z,19.80
2022-09-07T02:32:23.774Z,19.90
2022-09-07T02:34:51.980Z,19.90
2022-09-07T02:37:22.381Z,19.90
2022-09-07T02:39:50.678Z,19.90
2022-09-07T02:42:18.745Z,20.00
2022-09-07T02:44:48.047Z,20.10
2022-09-07T02:47:27.867Z,20.20
2022-09-07T02:50:10.854Z,20.20
2022-09-07T02:52:47.221Z,20.30
2022-09-07T02:55:27.779Z,20.30
2022-09-07T02:58:06.523Z,20.40
2022-09-07T03:00:42.977Z,20.40
2022-09-07T03:03:23.190Z,20.40
2022-09-07T03:05:56.344Z,20.40
2022-09-07T03:08:26.916Z,20.30
2022-09-07T03:10:56.747Z,20.30
2022-09-07T03:13:27.195Z,20.30
2022-09-07T03:15:56.502Z,20.20
2022-09-07T03:18:27.277Z,20.20
2022-09-07T03:20:55.999Z,20.20
2022-09-07T03:23:24.930Z,20.10
2022-09-07T03:25:53.015Z,20.10
2022-09-07T03:28:21.034Z,20.00
2022-09-07T03:30:49.240Z,20.00
2022-09-07T03:33:18.194Z,19.90
2022-09-07T03:35:58.538Z,19.90
2022-09-07T03:38:26.693Z,19.90
2022-09-07T03:41:01.873Z,19.90
2022-09-07T03:43:30.960Z,19.90
2022-09-07T03:46:00.059Z,19.90
2022-09-07T03:48:29.148Z,19.80
2022-09-07T03:51:00.274Z,19.80
2022-09-07T03:53:31.004Z,19.70
2022-09-07T03:56:00.722Z,19.50
2022-09-07T03:58:30.867Z,19.40
2022-09-07T04:00:59.659Z,19.30
2022-09-07T04:03:28.483Z,19.30
2022-09-07T04:05:58.956Z,19.40
2022-09-07T04:08:28.953Z,19.30
2022-09-07T04:10:57.887Z,19.10
2022-09-07T04:13:26.729Z,18.90
2022-09-07T04:15:55.052Z,18.80
2022-09-07T04:18:23.519Z,18.70
2022-09-07T04:20:52.355Z,18.50
2022-09-07T04:23:21.094Z,18.40
2022-09-07T04:25:51.603Z,18.40
2022-09-07T04:28:21.536Z,18.30
2022-09-07T04:30:49.743Z,18.20
2022-09-07T04:33:18.458Z,18.20
2022-09-07T04:35:46.706Z,18.20
2022-09-07T04:38:17.775Z,18.20
2022-09-07T04:40:45.894Z,18.20
2022-09-07T04:43:15.254Z,18.20
2022-09-07T04:45:43.388Z,18.30
2022-09-07T04:48:11.601Z,18.30
2022-09-07T04:50:39.638Z,18.20
2022-09-07T04:53:07.845Z,18.20
2022-09-07T04:55:35.978Z,18.10
2022-09-07T04:58:04.173Z,18.00
2022-09-07T05:00:33.669Z,17.90
2022-09-07T05:03:01.749Z,17.90
2022-09-07T05:05:29.790Z,17.80
2022-09-07T05:07:57.941Z,17.70
2022-09-07T05:10:25.978Z,17.70
2022-09-07T05:12:54.091Z,17.60
2022-09-07T05:15:23.296Z,17.60
2022-09-07T05:17:53.196Z,17.60
2022-09-07T05:20:21.536Z,17.70
2022-09-07T05:22:49.784Z,17.70
2022-09-07T05:25:17.888Z,17.80
2022-09-07T05:27:46.002Z,17.80
2022-09-07T05:33:05.120Z,17.80
2022-09-07T05:35:33.199Z,18.00
2022-09-07T05:38:01.266Z,18.10
2022-09-07T05:40:36.101Z,18.10
2022-09-07T05:43:06.552Z,18.20
2022-09-07T05:45:34.646Z,18.10
2022-09-07T05:48:04.460Z,18.20
2022-09-07T05:50:33.786Z,18.30
2022-09-07T05:53:01.970Z,18.40
2022-09-07T05:55:31.727Z,18.50
2022-09-07T05:57:59.933Z,18.60
2022-09-07T06:00:28.939Z,18.80
2022-09-07T06:02:57.086Z,19.00
2022-09-07T06:05:26.722Z,19.10
2022-09-07T06:07:54.913Z,19.30
2022-09-07T06:13:11.185Z,19.60
2022-09-07T06:15:39.248Z,19.70
2022-09-07T06:18:07.385Z,19.80
2022-09-07T06:20:36.738Z,19.90
2022-09-07T06:23:04.837Z,19.90
2022-09-07T06:25:32.892Z,20.10
2022-09-07T06:28:01.101Z,20.20
2022-09-07T06:30:29.416Z,20.40
2022-09-07T06:32:57.468Z,20.60
2022-09-07T06:35:25.906Z,20.70
2022-09-07T06:37:55.579Z,20.90
2022-09-07T06:40:23.928Z,21.00
2022-09-07T06:42:52.125Z,21.10
2022-09-07T06:45:20.221Z,21.20
2022-09-07T06:47:48.349Z,21.30
2022-09-07T06:50:17.724Z,21.50
2022-09-07T06:55:35.212Z,21.70
2022-09-07T06:58:03.313Z,21.80
2022-09-07T07:00:31.412Z,21.80
2022-09-07T07:02:59.693Z,21.80
2022-09-07T07:05:28.086Z,21.80
2022-09-07T07:07:56.366Z,21.80
2022-09-07T07:10:25.208Z,21.80
2022-09-07T07:12:58.407Z,21.80
2022-09-07T07:15:28.883Z,21.80
2022-09-07T07:18:05.140Z,21.90
2022-09-07T07:20:43.012Z,21.90
2022-09-07T07:23:12.894Z,22.00
2022-09-07T07:25:41.015Z,22.00
2022-09-07T07:30:59.552Z,22.10
2022-09-07T07:33:31.268Z,22.30
2022-09-07T07:36:12.508Z,22.30
2022-09-07T07:44:15.963Z,22.60
2022-09-07T07:46:44.229Z,22.60
2022-09-07T07:49:12.286Z,22.70
2022-09-07T07:54:28.380Z,22.90
2022-09-07T07:56:56.395Z,23.10
2022-09-07T07:59:25.990Z,23.20
2022-09-07T08:01:54.127Z,23.40
2022-09-07T08:04:22.996Z,23.50
2022-09-07T08:06:51.046Z,23.60
2022-09-07T08:09:18.993Z,23.60
2022-09-07T08:11:47.077Z,23.60
2022-09-07T08:14:15.720Z,23.60
2022-09-07T08:16:45.409Z,23.60
2022-09-07T08:19:13.755Z,23.70
2022-09-07T08:21:41.654Z,23.70
2022-09-07T08:24:09.723Z,23.70
2022-09-07T08:26:37.589Z,23.90
2022-09-07T08:29:05.626Z,24.00
2022-09-07T08:31:33.554Z,23.90
2022-09-07T08:34:02.949Z,23.90
2022-09-07T08:36:31.786Z,23.90
2022-09-07T08:38:59.920Z,23.90
2022-09-07T08:41:52.288Z,24.00
2022-09-07T08:44:24.980Z,24.10
2022-09-07T08:46:57.290Z,24.10
2022-09-07T08:49:34.474Z,24.10
2022-09-07T08:52:05.829Z,24.20
2022-09-07T08:54:34.084Z,24.40
2022-09-07T08:59:58.896Z,24.60
2022-09-07T09:02:28.241Z,24.80
2022-09-07T09:07:53.739Z,25.00
2022-09-07T09:10:33.415Z,25.10
2022-09-07T09:13:07.858Z,25.30
2022-09-07T09:15:55.672Z,25.50
2022-09-07T09:18:40.026Z,25.80
2022-09-07T09:21:14.908Z,26.20
2022-09-07T09:23:44.569Z,26.40
2022-09-07T09:26:18.874Z,26.40
2022-09-07T09:28:47.185Z,26.60
2022-09-07T09:31:19.351Z,27.00
2022-09-07T09:34:09.651Z,27.10
2022-09-07T09:36:46.813Z,27.20
2022-09-07T09:39:29.360Z,27.40
2022-09-07T09:42:00.730Z,27.60
2022-09-07T09:44:32.949Z,27.80
2022-09-07T09:49:53.521Z,28.00
2022-09-07T09:52:30.166Z,28.10
2022-09-07T09:55:17.272Z,27.40
2022-09-07T10:01:21.241Z,27.30
2022-09-07T10:06:17.897Z,27.70
2022-09-07T10:08:56.162Z,28.10
2022-09-07T10:14:31.693Z,28.50
2022-09-07T10:17:02.047Z,28.80
2022-09-07T10:19:36.036Z,29.00
2022-09-07T10:22:06.426Z,29.40
2022-09-07T10:24:39.939Z,29.80
2022-09-07T10:27:21.627Z,30.00
2022-09-07T10:29:49.991Z,30.40
2022-09-07T10:32:28.835Z,30.60
2022-09-07T10:35:08.801Z,30.70
2022-09-07T10:37:48.633Z,30.20
2022-09-07T10:40:29.397Z,29.90
2022-09-07T10:43:22.123Z,29.50
2022-09-07T10:49:20.279Z,28.40
2022-09-07T10:52:01.261Z,28.20
2022-09-07T10:54:36.921Z,27.80
2022-09-07T10:57:23.004Z,27.60
2022-09-07T11:00:12.238Z,27.60
2022-09-07T11:05:59.638Z,27.50
2022-09-07T11:14:24.709Z,27.70
2022-09-07T11:16:56.317Z,28.40
2022-09-07T11:19:37.635Z,29.00
2022-09-07T11:22:20.397Z,29.40
2022-09-07T11:27:46.494Z,30.30
2022-09-07T11:30:21.782Z,30.90
2022-09-07T11:33:12.158Z,31.30
2022-09-07T11:35:49.712Z,31.40
2022-09-07T11:38:26.851Z,31.80
2022-09-07T11:41:18.578Z,32.00
2022-09-07T11:43:50.340Z,32.20
2022-09-07T11:46:27.289Z,32.00
2022-09-07T11:48:56.679Z,31.90
2022-09-07T11:51:33.524Z,31.80
2022-09-07T11:54:18.269Z,32.10
2022-09-07T11:56:51.452Z,32.40
2022-09-07T11:59:37.741Z,32.80
2022-09-07T12:02:58.375Z,32.90
2022-09-07T12:05:45.852Z,32.00
2022-09-07T12:08:37.475Z,31.40
2022-09-07T12:11:25.195Z,32.20
2022-09-07T12:14:12.673Z,33.00
2022-09-07T12:16:56.159Z,33.10
2022-09-07T12:19:27.660Z,32.50
2022-09-07T12:21:57.689Z,32.40
2022-09-07T12:24:37.147Z,32.80
2022-09-07T12:27:06.187Z,33.40
2022-09-07T12:29:34.673Z,33.40
2022-09-07T12:32:53.148Z,33.60
2022-09-07T12:34:57.825Z,34.00
2022-09-07T12:37:41.070Z,33.80
2022-09-07T12:40:58.608Z,33.70
2022-09-07T12:43:34.202Z,33.60
2022-09-07T12:46:02.812Z,33.60
2022-09-07T12:48:46.603Z,33.80
2022-09-07T12:54:21.478Z,34.50
2022-09-07T13:00:00.704Z,34.00
2022-09-07T13:07:01.736Z,34.00
2022-09-07T13:09:27.386Z,34.00
2022-09-07T13:11:55.630Z,34.70
2022-09-07T13:14:27.636Z,34.40
2022-09-07T13:17:29.845Z,34.30
2022-09-07T13:20:39.672Z,34.90
2022-09-07T13:23:34.215Z,35.50
2022-09-07T13:26:04.657Z,36.10
2022-09-07T13:28:56.788Z,36.30
2022-09-07T13:31:44.211Z,36.50
2022-09-07T13:34:43.825Z,36.40
2022-09-07T13:37:22.951Z,35.90
2022-09-07T13:39:56.011Z,36.00
2022-09-07T13:42:27.303Z,36.30
2022-09-07T13:44:59.182Z,36.00
2022-09-07T13:47:45.681Z,35.90
2022-09-07T13:50:25.128Z,36.10
2022-09-07T13:53:24.339Z,36.60
2022-09-07T13:56:02.022Z,36.70
2022-09-07T13:58:34.762Z,37.10
2022-09-07T14:01:06.869Z,36.20
2022-09-07T14:03:48.669Z,35.30
2022-09-07T14:06:33.122Z,35.10
2022-09-07T14:09:03.459Z,35.50
2022-09-07T14:11:41.826Z,36.00
2022-09-07T14:14:16.381Z,35.50
2022-09-07T14:16:46.779Z,35.80
2022-09-07T14:19:20.109Z,36.00
2022-09-07T14:22:02.034Z,36.00
2022-09-07T14:24:33.741Z,35.60
2022-09-07T14:27:04.142Z,35.00
2022-09-07T14:29:33.824Z,35.10
2022-09-07T14:32:04.098Z,35.40
2022-09-07T14:34:35.766Z,35.40
2022-09-07T14:37:07.846Z,35.50
2022-09-07T14:39:39.517Z,35.80
2022-09-07T14:42:11.547Z,36.00
2022-09-07T14:44:42.967Z,36.00
2022-09-07T14:47:24.768Z,35.60
2022-09-07T14:49:54.172Z,34.90
2022-09-07T14:52:31.117Z,33.90
2022-09-07T14:54:59.395Z,33.20
2022-09-07T14:57:32.286Z,32.80
2022-09-07T15:00:20.724Z,32.30
2022-09-07T15:02:48.827Z,32.40
2022-09-07T15:05:26.013Z,32.30
2022-09-07T15:07:56.643Z,32.30
2022-09-07T15:10:37.450Z,32.70
2022-09-07T15:13:22.627Z,33.00
2022-09-07T15:15:59.306Z,33.70
2022-09-07T15:18:55.885Z,34.40
2022-09-07T15:21:25.733Z,34.50
2022-09-07T15:23:54.667Z,33.50
2022-09-07T15:29:13.794Z,32.10
2022-09-07T15:31:49.749Z,31.40
2022-09-07T15:34:22.464Z,30.90
2022-09-07T15:36:52.511Z,30.80
2022-09-07T15:39:22.622Z,30.70
2022-09-07T15:41:51.652Z,30.60
2022-09-07T15:44:25.173Z,30.10
2022-09-07T15:49:49.143Z,29.50
2022-09-07T15:52:18.661Z,28.90
2022-09-07T15:54:46.674Z,28.50
2022-09-07T16:00:06.059Z,28.30
2022-09-07T16:05:31.175Z,28.20
2022-09-07T16:10:53.562Z,28.50
2022-09-07T16:13:23.808Z,28.70
2022-09-07T16:15:53.136Z,28.50
2022-09-07T16:18:21.287Z,28.50
2022-09-07T16:20:52.656Z,28.40
2022-09-07T16:23:21.229Z,28.20
2022-09-07T16:25:59.697Z,28.10
2022-09-07T16:28:28.699Z,27.90
2022-09-07T16:30:58.359Z,27.80
2022-09-07T16:33:33.047Z,27.80
2022-09-07T16:36:07.120Z,27.60
2022-09-07T16:38:50.906Z,27.30
2022-09-07T16:41:20.885Z,27.20
2022-09-07T16:43:48.846Z,27.20
2022-09-07T16:46:19.954Z,27.10
2022-09-07T16:48:48.247Z,26.90
2022-09-07T16:51:19.641Z,26.80
2022-09-07T16:53:48.785Z,26.60
2022-09-07T16:56:18.306Z,26.60
2022-09-07T16:58:48.456Z,26.50
2022-09-07T17:01:20.414Z,26.40
2022-09-07T17:03:50.078Z,26.30
2022-09-07T17:06:20.155Z,26.30
2022-09-07T17:08:48.356Z,26.20
2022-09-07T17:11:18.268Z,26.10
2022-09-07T17:13:46.931Z,26.10
2022-09-07T17:16:16.729Z,26.00
2022-09-07T17:21:36.158Z,26.00
2022-09-07T17:24:05.952Z,26.10
2022-09-07T17:26:34.222Z,26.10
2022-09-07T17:29:02.407Z,26.00
2022-09-07T17:34:21.305Z,25.80
2022-09-07T17:36:49.311Z,25.70
2022-09-07T17:39:18.768Z,25.70
2022-09-07T17:41:47.560Z,25.50
2022-09-07T17:44:16.594Z,25.40
2022-09-07T17:46:44.856Z,25.30
2022-09-07T17:49:14.401Z,25.30
2022-09-07T17:51:44.069Z,25.10
2022-09-07T17:54:14.528Z,25.10
2022-09-07T17:56:43.466Z,25.10
2022-09-07T18:02:00.922Z,24.90
2022-09-07T18:04:29.521Z,24.80
2022-09-07T18:06:58.753Z,24.60
2022-09-07T18:09:26.596Z,24.50
2022-09-07T18:11:54.439Z,24.30
2022-09-07T18:14:22.305Z,24.00
2022-09-07T18:16:51.039Z,24.00
2022-09-07T18:19:19.792Z,23.90
2022-09-07T18:21:48.666Z,24.00
2022-09-07T18:24:21.038Z,23.70
2022-09-07T18:26:52.095Z,23.50
2022-09-07T18:29:32.496Z,23.30
2022-09-07T18:32:04.767Z,23.40
2022-09-07T18:34:36.006Z,23.30
2022-09-07T18:37:04.571Z,23.30
2022-09-07T18:39:35.441Z,23.20
2022-09-07T18:42:03.583Z,23.10
2022-09-07T18:47:27.662Z,22.90
2022-09-07T18:49:56.172Z,22.70
2022-09-07T18:55:13.561Z,22.40
2022-09-07T18:57:41.775Z,22.20
2022-09-07T19:00:12.357Z,22.10
2022-09-07T19:02:40.381Z,22.10
2022-09-07T19:07:56.856Z,21.80
2022-09-07T19:10:26.175Z,21.60
2022-09-07T19:12:54.031Z,21.40
2022-09-07T19:15:23.706Z,21.50
2022-09-07T19:17:51.834Z,21.40
2022-09-07T19:20:19.828Z,21.40
2022-09-07T19:22:47.898Z,21.40
2022-09-07T19:25:17.320Z,21.50
2022-09-07T19:27:46.846Z,21.50
2022-09-07T19:30:15.575Z,21.60
2022-09-07T19:32:43.896Z,21.60
2022-09-07T19:35:12.013Z,21.50
2022-09-07T19:37:40.289Z,21.50
2022-09-07T19:40:13.530Z,21.60
2022-09-07T19:42:44.850Z,21.60
2022-09-07T19:45:15.144Z,21.50
2022-09-07T19:47:43.406Z,21.50
2022-09-07T19:50:11.589Z,21.50
2022-09-07T19:52:39.732Z,21.50
2022-09-07T19:55:08.761Z,21.60
2022-09-07T19:57:36.756Z,21.60
2022-09-07T20:00:05.826Z,21.60
2022-09-07T20:02:41.168Z,21.60
2022-09-07T20:05:09.881Z,21.50
2022-09-07T20:07:40.545Z,21.50
2022-09-07T20:10:09.093Z,21.40
2022-09-07T20:12:36.997Z,21.30
2022-09-07T20:15:05.357Z,21.20
2022-09-07T20:17:35.446Z,21.20
2022-09-07T20:20:06.523Z,21.10
2022-09-07T20:22:34.358Z,21.00
2022-09-07T20:25:02.199Z,20.90
2022-09-07T20:27:30.506Z,20.80
2022-09-07T20:29:58.324Z,20.70
2022-09-07T20:32:28.130Z,20.70
2022-09-07T20:34:56.341Z,20.70
2022-09-07T20:37:28.564Z,20.80
2022-09-07T20:39:56.485Z,20.70
2022-09-07T20:42:24.373Z,20.60
2022-09-07T20:44:53.404Z,20.50
2022-09-07T20:47:21.290Z,20.40
2022-09-07T20:49:49.299Z,20.30
2022-09-07T20:52:17.070Z,20.20
2022-09-07T20:54:46.589Z,20.20
2022-09-07T20:57:14.471Z,20.00
2022-09-07T20:59:42.376Z,20.00
2022-09-07T21:02:10.467Z,19.90
2022-09-07T21:04:38.482Z,19.80
2022-09-07T21:07:06.346Z,19.70
2022-09-07T21:09:34.295Z,19.60
2022-09-07T21:12:04.057Z,19.50
2022-09-07T21:14:32.147Z,19.50
2022-09-07T21:17:00.095Z,19.50
2022-09-07T21:19:28.032Z,19.40
2022-09-07T21:21:55.927Z,19.30
2022-09-07T21:24:24.736Z,19.20
2022-09-07T21:26:52.972Z,19.20
2022-09-07T21:29:24.211Z,19.20
2022-09-07T21:31:53.954Z,19.10
2022-09-07T21:34:22.491Z,19.20
2022-09-07T21:36:50.533Z,19.20
2022-09-07T21:39:19.257Z,19.30
2022-09-07T21:41:47.220Z,19.40
2022-09-07T21:44:16.439Z,19.50
2022-09-07T21:46:45.997Z,19.50
2022-09-07T21:49:14.455Z,19.60
2022-09-07T21:51:42.461Z,19.70
2022-09-07T21:54:10.503Z,19.70
2022-09-07T21:56:40.196Z,19.70
2022-09-07T21:59:11.241Z,19.70
2022-09-07T22:01:39.250Z,19.70
2022-09-07T22:04:08.503Z,19.60
2022-09-07T22:06:37.593Z,19.50
2022-09-07T22:09:06.050Z,19.40
2022-09-07T22:11:34.671Z,19.30
2022-09-07T22:14:03.918Z,19.30
2022-09-07T22:16:32.920Z,19.30
2022-09-07T22:19:01.585Z,19.40
2022-09-07T22:21:32.017Z,19.50
2022-09-07T22:24:01.768Z,19.60
2022-09-07T22:26:32.173Z,19.60
2022-09-07T22:29:00.201Z,19.70
2022-09-07T22:31:30.095Z,19.60
2022-09-07T22:33:59.538Z,19.70
2022-09-07T22:36:31.117Z,19.80
2022-09-07T22:39:01.119Z,19.90
2022-09-07T22:41:30.880Z,19.90
2022-09-07T22:43:58.911Z,19.90
2022-09-07T22:46:29.348Z,19.90
2022-09-07T22:48:58.470Z,19.80
2022-09-07T22:51:27.038Z,19.80
2022-09-07T22:53:57.525Z,19.70
2022-09-07T22:56:28.535Z,19.70
2022-09-07T22:58:58.912Z,19.70
2022-09-07T23:01:27.871Z,19.70
2022-09-07T23:03:56.834Z,19.60
2022-09-07T23:06:26.629Z,19.60
2022-09-07T23:08:57.442Z,19.60
2022-09-07T23:11:26.669Z,19.60
2022-09-07T23:13:56.069Z,19.50
2022-09-07T23:16:24.608Z,19.40
2022-09-07T23:18:52.796Z,19.30
2022-09-07T23:21:20.889Z,19.30
2022-09-07T23:23:53.139Z,19.30
2022-09-07T23:26:24.659Z,19.30
2022-09-07T23:28:53.530Z,19.30
2022-09-07T23:31:22.223Z,19.30
2022-09-07T23:33:50.586Z,19.30
2022-09-07T23:36:18.942Z,19.30
2022-09-07T23:38:47.313Z,19.30
2022-09-07T23:41:15.350Z,19.30
2022-09-07T23:43:45.032Z,19.40
2022-09-07T23:46:13.964Z,19.40
2022-09-07T23:48:43.376Z,19.30
2022-09-07T23:51:11.513Z,19.20
2022-09-07T23:53:39.905Z,19.20
2022-09-07T23:56:08.017Z,19.20
2022-09-07T23:58:36.070Z,19.20
